createdAt,value
2022-10-28T00:01:10.694Z,11.10
2022-10-28T00:03:38.954Z,11.53
2022-10-28T00:06:07.625Z,11.73
2022-10-28T00:08:35.545Z,11.17
2022-10-28T00:11:04.719Z,10.20
2022-10-28T00:13:32.326Z,10.60
2022-10-28T00:16:06.179Z,9.97
2022-10-28T00:18:33.942Z,10.13
2022-10-28T00:21:02.707Z,10.03
2022-10-28T00:23:30.460Z,10.10
2022-10-28T00:26:04.327Z,10.00
2022-10-28T00:28:32.233Z,11.30
2022-10-28T00:31:04.194Z,10.47
2022-10-28T00:33:37.033Z,10.33
2022-10-28T00:36:08.519Z,10.40
2022-10-28T00:38:36.521Z,9.77
2022-10-28T00:41:04.212Z,9.90
2022-10-28T00:43:36.069Z,9.77
2022-10-28T00:46:04.470Z,9.87
2022-10-28T00:48:33.550Z,9.90
2022-10-28T00:51:01.452Z,10.03
2022-10-28T00:53:30.331Z,9.87
2022-10-28T00:56:00.099Z,9.40
2022-10-28T00:58:28.304Z,9.90
2022-10-28T01:00:55.950Z,9.53
2022-10-28T01:03:24.212Z,9.77
2022-10-28T01:05:53.831Z,9.90
2022-10-28T01:08:21.672Z,8.90
2022-10-28T01:10:54.623Z,9.50
2022-10-28T01:13:27.547Z,9.20
2022-10-28T01:16:00.274Z,10.70
2022-10-28T01:18:32.243Z,10.07
2022-10-28T01:21:14.285Z,10.50
2022-10-28T01:23:48.377Z,9.40
2022-10-28T01:26:29.583Z,10.53
2022-10-28T01:29:10.775Z,10.60
2022-10-28T01:31:42.573Z,9.90
2022-10-28T01:34:14.898Z,10.00
2022-10-28T01:36:49.651Z,9.87
2022-10-28T01:39:24.692Z,10.33
2022-10-28T01:41:55.565Z,10.20
2022-10-28T01:44:27.818Z,9.90
2022-10-28T01:47:00.774Z,9.73
2022-10-28T01:49:31.530Z,10.03
2022-10-28T01:52:01.922Z,10.03
2022-10-28T01:54:32.005Z,10.17
2022-10-28T01:57:00.545Z,10.30
2022-10-28T01:59:29.852Z,10.80
2022-10-28T02:01:59.246Z,10.10
2022-10-28T02:04:27.184Z,10.60
2022-10-28T02:06:56.918Z,10.20
2022-10-28T02:09:48.791Z,10.63
2022-10-28T02:12:25.554Z,9.87
2022-10-28T02:17:47.854Z,10.67
2022-10-28T02:20:19.338Z,10.17
2022-10-28T02:22:48.441Z,10.00
2022-10-28T02:25:18.503Z,10.67
2022-10-28T02:27:48.685Z,10.00
2022-10-28T02:30:17.894Z,10.30
2022-10-28T02:32:49.880Z,10.60
2022-10-28T02:35:18.821Z,11.40
2022-10-28T02:37:49.705Z,10.20
2022-10-28T02:40:20.666Z,10.60
2022-10-28T02:42:50.617Z,11.73
2022-10-28T02:45:19.745Z,10.77
2022-10-28T02:47:51.459Z,10.30
2022-10-28T02:50:21.594Z,10.60
2022-10-28T02:52:51.769Z,11.00
2022-10-28T02:55:19.917Z,10.80
2022-10-28T02:57:49.179Z,10.80
2022-10-28T03:00:18.270Z,10.70
2022-10-28T03:02:45.789Z,10.80
2022-10-28T03:05:15.188Z,11.43
2022-10-28T03:07:43.133Z,10.73
2022-10-28T03:10:11.085Z,11.00
2022-10-28T03:12:39.035Z,11.17
2022-10-28T03:15:07.145Z,10.83
2022-10-28T03:17:34.736Z,10.80
2022-10-28T03:20:05.732Z,11.50
2022-10-28T03:22:34.975Z,11.83
2022-10-28T03:25:02.807Z,11.27
2022-10-28T03:27:30.371Z,11.27
2022-10-28T03:29:58.447Z,11.90
2022-10-28T03:32:25.982Z,12.00
2022-10-28T03:34:53.906Z,11.20
2022-10-28T03:37:22.015Z,11.00
2022-10-28T03:39:51.025Z,11.87
2022-10-28T03:42:18.550Z,11.93
2022-10-28T03:44:46.687Z,11.80
2022-10-28T03:47:14.319Z,12.53
2022-10-28T03:49:42.166Z,11.90
2022-10-28T03:52:11.134Z,11.77
2022-10-28T03:54:38.765Z,12.30
2022-10-28T03:57:07.595Z,13.57
2022-10-28T03:59:35.450Z,11.83
2022-10-28T04:02:03.170Z,12.17
2022-10-28T04:04:31.134Z,12.77
2022-10-28T04:06:58.944Z,12.67
2022-10-28T04:09:26.522Z,13.00
2022-10-28T04:11:54.072Z,12.80
2022-10-28T04:14:23.768Z,11.53
2022-10-28T04:16:51.310Z,12.57
2022-10-28T04:19:18.842Z,12.13
2022-10-28T04:21:46.549Z,13.30
2022-10-28T04:24:14.091Z,12.73
2022-10-28T04:26:41.585Z,11.60
2022-10-28T04:29:09.503Z,12.67
2022-10-28T04:31:38.371Z,13.23
2022-10-28T04:34:07.535Z,13.10
2022-10-28T04:36:35.181Z,13.93
2022-10-28T04:39:02.726Z,12.77
2022-10-28T04:41:30.169Z,13.20
2022-10-28T04:43:58.186Z,13.80
2022-10-28T04:46:25.702Z,13.37
2022-10-28T04:48:54.572Z,12.97
2022-10-28T04:51:22.271Z,13.20
2022-10-28T04:53:50.154Z,13.63
2022-10-28T04:56:17.647Z,13.87
2022-10-28T04:58:45.211Z,13.97
2022-10-28T05:01:12.780Z,13.90
2022-10-28T05:03:40.559Z,14.40
2022-10-28T05:06:09.712Z,14.43
2022-10-28T05:08:37.255Z,14.30
2022-10-28T05:11:04.846Z,14.60
2022-10-28T05:13:32.658Z,15.87
2022-10-28T05:16:00.129Z,13.83
2022-10-28T05:18:27.673Z,14.20
2022-10-28T05:20:55.825Z,13.63
2022-10-28T05:23:27.266Z,13.17
2022-10-28T05:25:56.446Z,13.87
2022-10-28T05:28:23.896Z,13.67
2022-10-28T05:30:51.606Z,14.57
2022-10-28T05:33:19.203Z,13.50
2022-10-28T05:35:47.135Z,13.00
2022-10-28T05:38:15.233Z,13.00
2022-10-28T05:40:44.114Z,13.30
2022-10-28T05:43:11.974Z,13.30
2022-10-28T05:45:39.665Z,12.87
2022-10-28T05:48:07.496Z,14.27
2022-10-28T05:50:35.386Z,13.90
2022-10-28T05:53:03.386Z,14.40
2022-10-28T05:55:31.557Z,12.73
2022-10-28T05:58:00.569Z,12.73
2022-10-28T06:00:28.789Z,12.70
2022-10-28T06:03:02.901Z,12.27
2022-10-28T06:05:30.593Z,12.93
2022-10-28T06:07:58.095Z,11.80
2022-10-28T06:10:26.103Z,11.40
2022-10-28T06:12:54.494Z,10.87
2022-10-28T06:15:23.846Z,10.83
2022-10-28T06:17:51.328Z,10.50
2022-10-28T06:20:19.716Z,11.10
2022-10-28T06:22:48.066Z,10.63
2022-10-28T06:25:15.711Z,10.70
2022-10-28T06:27:43.404Z,9.80
2022-10-28T06:30:11.647Z,9.83
2022-10-28T06:32:40.511Z,9.53
2022-10-28T06:35:08.472Z,8.90
2022-10-28T06:37:35.941Z,10.30
2022-10-28T06:40:04.192Z,9.10
2022-10-28T06:42:31.904Z,10.10
2022-10-28T06:44:59.641Z,10.00
2022-10-28T06:47:28.910Z,10.17
2022-10-28T06:49:58.017Z,10.23
2022-10-28T06:52:25.545Z,9.77
2022-10-28T06:54:53.062Z,10.60
2022-10-28T06:57:22.754Z,9.70
2022-10-28T06:59:52.093Z,10.97
2022-10-28T07:02:19.719Z,9.70
2022-10-28T07:04:47.714Z,10.00
2022-10-28T07:07:17.012Z,10.93
2022-10-28T07:09:44.956Z,11.77
2022-10-28T07:12:13.021Z,9.90
2022-10-28T07:14:40.621Z,10.73
2022-10-28T07:17:08.086Z,11.00
2022-10-28T07:19:35.913Z,10.50
2022-10-28T07:22:03.356Z,10.60
2022-10-28T07:24:32.441Z,11.87
2022-10-28T07:27:00.267Z,11.60
2022-10-28T07:29:27.851Z,9.43
2022-10-28T07:31:55.482Z,9.30
2022-10-28T07:34:26.903Z,9.87
2022-10-28T07:36:58.148Z,8.90
2022-10-28T07:39:26.152Z,8.60
2022-10-28T07:41:56.779Z,9.60
2022-10-28T07:44:39.397Z,9.23
2022-10-28T07:47:07.735Z,8.33
2022-10-28T07:49:37.121Z,7.70
2022-10-28T07:52:10.187Z,8.10
2022-10-28T07:54:37.970Z,8.20
2022-10-28T07:57:08.121Z,8.20
2022-10-28T07:59:35.935Z,8.10
2022-10-28T08:02:04.050Z,7.40
2022-10-28T08:04:40.569Z,7.40
2022-10-28T08:07:11.465Z,7.63
2022-10-28T08:09:39.432Z,7.00
2022-10-28T08:12:10.042Z,7.80
2022-10-28T08:14:40.920Z,7.80
2022-10-28T08:17:08.460Z,6.77
2022-10-28T08:19:39.631Z,7.33
2022-10-28T08:22:14.634Z,5.57
2022-10-28T08:24:45.835Z,6.97
2022-10-28T08:27:15.033Z,6.30
2022-10-28T08:29:42.600Z,7.53
2022-10-28T08:32:12.764Z,6.20
2022-10-28T08:34:42.712Z,7.10
2022-10-28T08:37:11.468Z,7.77
2022-10-28T08:39:39.239Z,6.40
2022-10-28T08:42:18.130Z,6.03
2022-10-28T08:44:54.085Z,7.30
2022-10-28T08:47:26.376Z,7.77
2022-10-28T08:49:57.573Z,6.63
2022-10-28T08:52:27.500Z,7.00
2022-10-28T08:54:59.050Z,5.80
2022-10-28T08:57:34.308Z,5.83
2022-10-28T09:00:07.525Z,6.30
2022-10-28T09:02:41.900Z,6.50
2022-10-28T09:05:17.548Z,6.83
2022-10-28T09:07:46.687Z,6.70
2022-10-28T09:10:15.338Z,7.40
2022-10-28T09:12:47.753Z,6.40
2022-10-28T09:15:26.837Z,6.10
2022-10-28T09:17:56.872Z,6.37
2022-10-28T09:20:32.442Z,5.30
2022-10-28T09:23:12.130Z,6.20
2022-10-28T09:25:44.608Z,6.40
2022-10-28T09:28:18.879Z,6.70
2022-10-28T09:30:52.446Z,5.57
2022-10-28T09:33:36.301Z,5.37
2022-10-28T09:36:09.804Z,5.50
2022-10-28T09:38:44.190Z,5.90
2022-10-28T09:41:14.635Z,5.07
2022-10-28T09:43:47.805Z,5.03
2022-10-28T09:46:18.942Z,5.57
2022-10-28T09:48:48.317Z,7.30
2022-10-28T09:51:34.410Z,6.23
2022-10-28T09:54:03.782Z,4.73
2022-10-28T09:56:32.942Z,5.00
2022-10-28T09:59:12.385Z,4.90
2022-10-28T10:01:43.242Z,5.40
2022-10-28T10:04:19.544Z,4.40
2022-10-28T10:06:49.794Z,5.50
2022-10-28T10:09:21.533Z,4.40
2022-10-28T10:11:52.252Z,4.40
2022-10-28T10:14:23.243Z,5.80
2022-10-28T10:16:53.939Z,4.60
2022-10-28T10:19:21.891Z,4.70
2022-10-28T10:21:50.637Z,4.70
2022-10-28T10:24:25.225Z,6.50
2022-10-28T10:26:53.860Z,4.80
2022-10-28T10:29:22.618Z,5.60
2022-10-28T10:32:04.582Z,6.17
2022-10-28T10:34:32.146Z,4.73
2022-10-28T10:37:00.824Z,4.93
2022-10-28T10:39:30.653Z,6.13
2022-10-28T10:41:58.205Z,4.50
2022-10-28T10:44:31.446Z,4.90
2022-10-28T10:47:14.297Z,4.97
2022-10-28T10:49:43.553Z,4.27
2022-10-28T10:52:17.514Z,5.10
2022-10-28T10:54:48.238Z,4.60
2022-10-28T10:57:18.233Z,3.83
2022-10-28T10:59:46.437Z,4.70
2022-10-28T11:02:22.086Z,4.80
2022-10-28T11:04:52.727Z,5.87
2022-10-28T11:07:20.641Z,5.53
2022-10-28T11:09:49.576Z,3.90
2022-10-28T11:12:18.098Z,6.77
2022-10-28T11:14:55.030Z,5.07
2022-10-28T11:17:25.125Z,5.60
2022-10-28T11:19:57.748Z,5.47
2022-10-28T11:22:29.737Z,4.17
2022-10-28T11:25:06.366Z,4.33
2022-10-28T11:27:39.437Z,4.10
2022-10-28T11:30:11.435Z,4.17
2022-10-28T11:32:56.191Z,4.13
2022-10-28T11:35:41.264Z,4.50
2022-10-28T11:38:16.565Z,5.00
2022-10-28T11:40:53.013Z,4.20
2022-10-28T11:43:24.834Z,4.07
2022-10-28T11:45:57.140Z,3.87
2022-10-28T11:48:33.861Z,4.70
2022-10-28T11:51:07.862Z,4.10
2022-10-28T11:53:50.291Z,3.43
2022-10-28T11:56:23.265Z,4.60
2022-10-28T11:58:58.247Z,4.70
2022-10-28T12:01:33.079Z,4.23
2022-10-28T12:04:05.896Z,3.87
2022-10-28T12:06:47.373Z,4.93
2022-10-28T12:09:19.218Z,4.30
2022-10-28T12:14:24.443Z,5.47
2022-10-28T12:16:55.572Z,4.50
2022-10-28T12:19:24.294Z,3.73
2022-10-28T12:21:58.668Z,3.80
2022-10-28T12:24:26.555Z,4.60
2022-10-28T12:26:56.261Z,4.47
2022-10-28T12:29:25.529Z,4.40
2022-10-28T12:31:55.032Z,3.90
2022-10-28T12:34:28.011Z,4.33
2022-10-28T12:36:59.654Z,4.33
2022-10-28T12:39:29.833Z,4.10
2022-10-28T12:42:00.737Z,5.10
2022-10-28T12:44:29.680Z,3.53
2022-10-28T12:47:05.394Z,4.43
2022-10-28T12:49:38.175Z,4.93
2022-10-28T12:52:09.552Z,5.87
2022-10-28T12:54:43.027Z,4.93
2022-10-28T12:57:11.941Z,3.70
2022-10-28T12:59:41.686Z,4.60
2022-10-28T13:02:15.500Z,4.33
2022-10-28T13:04:43.877Z,4.77
2022-10-28T13:07:19.763Z,4.20
2022-10-28T13:09:51.671Z,4.60
2022-10-28T13:12:34.517Z,4.30
2022-10-28T13:15:20.804Z,4.60
2022-10-28T13:17:57.391Z,6.27
2022-10-28T13:20:30.203Z,4.70
2022-10-28T13:23:04.730Z,7.67
2022-10-28T13:25:45.237Z,5.57
2022-10-28T13:28:14.587Z,4.30
2022-10-28T13:30:52.858Z,5.30
2022-10-28T13:33:24.095Z,6.73
2022-10-28T13:38:22.905Z,9.30
2022-10-28T13:41:10.884Z,7.60
2022-10-28T13:43:58.402Z,5.73
2022-10-28T13:46:44.866Z,8.23
2022-10-28T13:49:24.230Z,5.73
2022-10-28T13:51:52.983Z,5.03
2022-10-28T13:54:26.845Z,6.97
2022-10-28T13:56:56.195Z,6.20
2022-10-28T13:59:25.667Z,5.10
2022-10-28T14:02:07.424Z,4.83
2022-10-28T14:04:44.020Z,4.80
2022-10-28T14:07:21.352Z,4.90
2022-10-28T14:09:52.384Z,4.80
2022-10-28T14:12:24.381Z,5.20
2022-10-28T14:14:58.800Z,4.67
2022-10-28T14:17:28.340Z,5.23
2022-10-28T14:19:56.393Z,4.70
2022-10-28T14:22:28.553Z,5.43
2022-10-28T14:24:57.670Z,6.10
2022-10-28T14:27:31.648Z,5.17
2022-10-28T14:30:15.952Z,5.77
2022-10-28T14:32:44.701Z,5.50
2022-10-28T14:35:19.883Z,6.50
2022-10-28T14:38:05.053Z,7.43
2022-10-28T14:40:35.956Z,5.63
2022-10-28T14:43:14.949Z,5.50
2022-10-28T14:45:48.557Z,5.67
2022-10-28T14:48:25.551Z,5.43
2022-10-28T14:50:53.318Z,6.93
2022-10-28T14:53:23.896Z,4.93
2022-10-28T15:04:40.174Z,6.73
2022-10-28T15:07:10.000Z,5.90
2022-10-28T15:09:39.745Z,6.43
2022-10-28T15:12:08.621Z,5.93
2022-10-28T15:14:37.868Z,6.10
2022-10-28T15:17:12.882Z,7.50
2022-10-28T15:19:43.290Z,8.03
2022-10-28T15:22:17.275Z,6.57
2022-10-28T15:24:53.840Z,7.90
2022-10-28T15:27:22.314Z,7.67
2022-10-28T15:29:50.194Z,9.87
2022-10-28T15:32:26.609Z,7.47
2022-10-28T15:34:55.466Z,8.10
2022-10-28T15:37:23.979Z,7.67
2022-10-28T15:39:53.467Z,8.23
2022-10-28T15:42:30.129Z,8.20
2022-10-28T15:44:58.622Z,6.80
2022-10-28T15:47:31.177Z,7.60
2022-10-28T15:50:03.227Z,7.93
2022-10-28T15:52:35.358Z,7.50
2022-10-28T15:55:04.555Z,7.43
2022-10-28T15:57:47.080Z,8.27
2022-10-28T16:00:22.835Z,8.10
2022-10-28T16:02:53.275Z,6.83
2022-10-28T16:08:30.840Z,8.40
2022-10-28T16:11:00.183Z,8.37
2022-10-28T16:13:29.711Z,7.90
2022-10-28T16:16:02.118Z,7.43
2022-10-28T16:18:30.445Z,7.73
2022-10-28T16:20:59.716Z,8.40
2022-10-28T16:23:33.544Z,7.40
2022-10-28T16:26:01.137Z,7.20
2022-10-28T16:28:29.005Z,7.53
2022-10-28T16:30:57.274Z,7.23
2022-10-28T16:33:29.138Z,7.60
2022-10-28T16:35:57.077Z,8.57
2022-10-28T16:38:24.716Z,8.40
2022-10-28T16:40:54.239Z,9.50
2022-10-28T16:43:22.550Z,7.37
2022-10-28T16:45:51.037Z,8.17
2022-10-28T16:48:19.203Z,8.37
2022-10-28T16:50:49.801Z,7.93
2022-10-28T16:53:17.760Z,8.10
2022-10-28T16:55:45.257Z,7.27
2022-10-28T16:58:14.374Z,7.37
2022-10-28T17:00:42.477Z,7.03
2022-10-28T17:03:13.101Z,7.60
2022-10-28T17:05:40.837Z,9.10
2022-10-28T17:08:09.987Z,7.83
2022-10-28T17:10:39.748Z,8.63
2022-10-28T17:13:08.719Z,8.40
2022-10-28T17:15:37.665Z,8.20
2022-10-28T17:18:05.208Z,8.80
2022-10-28T17:20:33.818Z,9.53
2022-10-28T17:23:01.472Z,9.33
2022-10-28T17:25:29.045Z,7.53
2022-10-28T17:27:57.120Z,8.60
2022-10-28T17:30:25.286Z,9.00
2022-10-28T17:32:54.797Z,8.07
2022-10-28T17:35:24.834Z,8.50
2022-10-28T17:37:52.716Z,9.97
2022-10-28T17:40:20.640Z,10.53
2022-10-28T17:42:48.775Z,10.60
2022-10-28T17:45:19.433Z,10.33
2022-10-28T17:47:49.827Z,15.10
2022-10-28T17:50:18.812Z,9.60
2022-10-28T17:52:46.458Z,10.10
2022-10-28T17:55:14.600Z,11.33
2022-10-28T17:57:44.464Z,11.60
2022-10-28T18:00:12.556Z,11.17
2022-10-28T18:02:40.692Z,10.43
2022-10-28T18:05:08.856Z,10.10
2022-10-28T18:07:37.698Z,12.73
2022-10-28T18:10:05.708Z,10.40
2022-10-28T18:12:33.339Z,9.33
2022-10-28T18:15:01.239Z,8.40
2022-10-28T18:17:28.770Z,13.07
2022-10-28T18:19:57.704Z,9.23
2022-10-28T18:24:56.886Z,10.50
2022-10-28T18:27:24.646Z,13.10
2022-10-28T18:29:52.172Z,9.53
2022-10-28T18:32:20.254Z,11.50
2022-10-28T18:34:47.754Z,9.80
2022-10-28T18:37:15.488Z,8.13
2022-10-28T18:39:42.966Z,10.00
2022-10-28T18:42:12.451Z,10.60
2022-10-28T18:44:41.443Z,9.47
2022-10-28T18:47:09.315Z,9.77
2022-10-28T18:49:36.880Z,9.63
2022-10-28T18:52:04.755Z,8.97
2022-10-28T18:54:33.518Z,8.93
2022-10-28T18:57:01.086Z,9.03
2022-10-28T18:59:30.042Z,9.07
2022-10-28T19:01:58.093Z,9.87
2022-10-28T19:04:25.771Z,8.50
2022-10-28T19:06:53.486Z,8.23
2022-10-28T19:09:21.163Z,8.37
2022-10-28T19:11:48.818Z,9.27
2022-10-28T19:14:16.328Z,9.43
2022-10-28T19:16:46.619Z,9.27
2022-10-28T19:19:14.128Z,9.20
2022-10-28T19:21:41.596Z,9.00
2022-10-28T19:24:09.681Z,9.30
2022-10-28T19:26:39.248Z,9.87
2022-10-28T19:29:07.114Z,8.20
2022-10-28T19:31:35.722Z,9.13
2022-10-28T19:34:05.555Z,9.67
2022-10-28T19:36:33.277Z,8.10
2022-10-28T19:39:01.106Z,8.83
2022-10-28T19:41:29.164Z,8.13
2022-10-28T19:43:58.914Z,8.57
2022-10-28T19:46:27.555Z,8.50
2022-10-28T19:48:55.853Z,9.50
2022-10-28T19:51:25.752Z,8.80
2022-10-28T19:53:53.918Z,9.07
2022-10-28T19:56:21.767Z,8.07
2022-10-28T19:58:53.276Z,8.60
2022-10-28T20:01:21.497Z,9.90
2022-10-28T20:03:50.336Z,9.67
2022-10-28T20:06:19.306Z,9.23
2022-10-28T20:08:48.400Z,9.27
2022-10-28T20:11:18.946Z,8.97
2022-10-28T20:13:52.679Z,9.40
2022-10-28T20:16:20.610Z,8.93
2022-10-28T20:18:49.102Z,10.53
2022-10-28T20:21:17.378Z,10.60
2022-10-28T20:23:45.509Z,9.70
2022-10-28T20:26:14.993Z,14.43
2022-10-28T20:28:42.517Z,9.40
2022-10-28T20:31:11.514Z,9.60
2022-10-28T20:33:39.850Z,10.03
2022-10-28T20:36:08.269Z,11.87
2022-10-28T20:38:35.984Z,9.57
2022-10-28T20:41:03.632Z,9.40
2022-10-28T20:43:32.681Z,9.73
2022-10-28T20:46:02.430Z,9.50
2022-10-28T20:48:30.656Z,9.13
2022-10-28T20:50:59.105Z,9.37
2022-10-28T20:53:27.531Z,9.13
2022-10-28T20:55:56.163Z,9.10
2022-10-28T20:58:25.920Z,11.07
2022-10-28T21:00:55.342Z,8.67
2022-10-28T21:03:23.155Z,9.07
2022-10-28T21:05:50.791Z,8.50
2022-10-28T21:08:18.655Z,8.90
2022-10-28T21:10:46.265Z,9.47
2022-10-28T21:13:13.952Z,16.43
2022-10-28T21:15:42.048Z,8.63
2022-10-28T21:18:11.024Z,9.40
2022-10-28T21:20:39.348Z,9.63
2022-10-28T21:23:07.142Z,9.27
2022-10-28T21:25:35.289Z,9.90
2022-10-28T21:28:02.986Z,10.07
2022-10-28T21:30:30.526Z,9.60
2022-10-28T21:32:58.433Z,10.50
2022-10-28T21:35:28.017Z,9.70
2022-10-28T21:37:56.112Z,9.13
2022-10-28T21:40:23.969Z,10.87
2022-10-28T21:42:52.345Z,12.13
2022-10-28T21:45:19.852Z,9.80
2022-10-28T21:47:47.413Z,8.10
2022-10-28T21:50:15.777Z,9.10
2022-10-28T21:52:44.623Z,10.10
2022-10-28T21:55:20.642Z,8.27
2022-10-28T21:58:00.411Z,8.80
2022-10-28T22:00:28.025Z,9.20
2022-10-28T22:02:56.026Z,9.70
2022-10-28T22:05:23.633Z,8.70
2022-10-28T22:07:52.785Z,9.57
2022-10-28T22:10:20.521Z,8.17
2022-10-28T22:12:48.054Z,8.30
2022-10-28T22:15:15.674Z,8.47
2022-10-28T22:17:43.163Z,8.50
2022-10-28T22:20:11.493Z,7.80
2022-10-28T22:22:40.738Z,9.10
2022-10-28T22:25:10.620Z,8.33
2022-10-28T22:27:38.623Z,8.37
2022-10-28T22:30:06.473Z,8.70
2022-10-28T22:32:34.016Z,8.60
2022-10-28T22:35:01.832Z,7.97
2022-10-28T22:37:29.392Z,9.33
2022-10-28T22:39:57.848Z,9.23
2022-10-28T22:42:26.863Z,8.27
2022-10-28T22:44:54.417Z,9.53
2022-10-28T22:47:22.247Z,9.20
2022-10-28T22:49:49.704Z,9.27
2022-10-28T22:52:17.377Z,8.90
2022-10-28T22:54:44.916Z,8.70
2022-10-28T22:57:12.937Z,9.57
2022-10-28T22:59:41.717Z,8.20
2022-10-28T23:02:09.578Z,7.50
2022-10-28T23:04:37.580Z,9.17
2022-10-28T23:07:05.725Z,9.20
2022-10-28T23:09:33.425Z,8.80
2022-10-28T23:12:01.331Z,8.23
2022-10-28T23:14:28.773Z,8.10
2022-10-28T23:16:57.868Z,7.77
2022-10-28T23:19:26.083Z,8.30
2022-10-28T23:21:53.583Z,7.77
2022-10-28T23:24:21.153Z,7.70
2022-10-28T23:26:48.750Z,8.60
2022-10-28T23:29:16.905Z,7.03
2022-10-28T23:31:44.374Z,8.27
2022-10-28T23:34:13.367Z,8.27
2022-10-28T23:36:41.021Z,8.93
2022-10-28T23:39:08.609Z,8.03
2022-10-28T23:41:36.573Z,7.83
2022-10-28T23:44:04.214Z,8.00
2022-10-28T23:46:36.502Z,7.60
2022-10-28T23:49:05.609Z,8.27
2022-10-28T23:51:34.456Z,8.17
2022-10-28T23:54:02.465Z,7.80
2022-10-28T23:56:30.057Z,7.63
2022-10-28T23:58:57.710Z,8.27
